Michipicoten — CFG8060 — position and weather

sailwx.info

Track history (hours):
 
Tides and Currents Weather Stations Pressure Air Temp Water Temp Dewpoint Dewpoint Depression Visibility Wind Speed Wind Dir Waves Ship Positions

Michipicoten

Last reported at 2018-Jun-24 00:31 UTC. Time now 2018-Jun-25 11:57 UTC.
Position N 46°53' W 091°46'.

Length 213 m; draft 5.6 m.

Type: Ship. MMSI: 316002501.

Date/timePositionNaut miles runAvg speedWind from/ knotsBaromVisibWave heightAir tempDewpointWater temp
2018-Jun-24 00:31N 46°53' W 091°46'113.2
2018-Jun-24 00:27N 46°53' W 091°47'613.2
2018-Jun-23 23:59N 46°50' W 091°55'613.2
2018-Jun-23 23:30N 46°47' W 092°04'3 6.3
2018-Jun-23 23:00N 46°45' W 092°06'1 2.1
2018-Jun-23 22:30N 46°45' W 092°08'0 0.1
2018-Jun-23 22:00N 46°45' W 092°08'0 0.1
2018-Jun-23 21:30N 46°45' W 092°08'0 0.0
2018-Jun-23 21:00N 46°45' W 092°08'0 0.0
2018-Jun-23 20:30N 46°45' W 092°08'0 0.1
2018-Jun-23 20:00N 46°45' W 092°08'0 0.0
2018-Jun-23 19:30N 46°45' W 092°08'0 0.0
2018-Jun-23 19:00N 46°45' W 092°08'0 0.0
2018-Jun-23 18:30N 46°45' W 092°08'0 0.6
2018-Jun-23 18:00N 46°45' W 092°08'2 4.2
2018-Jun-23 17:30N 46°46' W 092°06'612.4
2018-Jun-23 17:00N 46°49' W 091°58'714.1
2018-Jun-23 16:30N 46°52' W 091°48'713.9
2018-Jun-23 16:00N 46°54' W 091°38'713.9
2018-Jun-23 15:28N 46°57' W 091°28'3714.1
2018-Jun-23 12:51N 47°10' W 090°38'253 9.9
2018-Jun-22 11:22N 46°27' W 084°33'7912.1
2018-Jun-22 04:53N 46°43' W 086°25'613.6
2018-Jun-22 04:25N 46°41' W 086°34'613.6
2018-Jun-22 04:00N 46°40' W 086°42'813.6
2018-Jun-22 03:26N 46°39' W 086°54'  
2018-Jun-19 15:59N 46°53' W 091°45'613.3
2018-Jun-19 15:30N 46°50' W 091°54'713.4
2018-Jun-19 15:00N 46°48' W 092°03'3 6.9
2018-Jun-19 14:30N 46°45' W 092°06'1 2.7
2018-Jun-19 14:00N 46°45' W 092°08'0 0.7
2018-Jun-19 13:30N 46°45' W 092°08'0 0.0
2018-Jun-19 13:00N 46°45' W 092°08'0 0.1
2018-Jun-19 12:30N 46°45' W 092°08'0 0.0
2018-Jun-19 12:00N 46°45' W 092°08'0 0.1
2018-Jun-19 11:30N 46°45' W 092°08'0 0.0
2018-Jun-19 11:00N 46°45' W 092°08'0 0.0
2018-Jun-19 10:31N 46°45' W 092°08'0 0.0
2018-Jun-19 10:00N 46°45' W 092°08'0 0.1
2018-Jun-19 09:30N 46°45' W 092°08'0 0.1
2018-Jun-19 09:00N 46°45' W 092°08'0 0.0
2018-Jun-19 08:30N 46°45' W 092°08'0 0.0
2018-Jun-19 07:59N 46°45' W 092°08'0 0.0
2018-Jun-19 07:30N 46°45' W 092°08'0 0.0
2018-Jun-19 07:00N 46°45' W 092°08'0 0.3
2018-Jun-19 06:30N 46°45' W 092°08'1 3.0
2018-Jun-19 06:00N 46°45' W 092°06'4 7.6
2018-Jun-19 05:30N 46°48' W 092°02'713.9
2018-Jun-19 05:01N 46°50' W 091°52'714.1
2018-Jun-19 04:31N 46°53' W 091°43'714.1
2018-Jun-19 04:01N 46°56' W 091°33'714.1
2018-Jun-19 03:31N 46°58' W 091°24'  
Track history (hours):
 
Tides and Currents Weather Stations Pressure Air Temp Water Temp Dewpoint Dewpoint Depression Visibility Wind Speed Wind Dir Waves Ship Positions

Michipicoten

Last reported at 2018-Jun-24 00:31 UTC. Time now 2018-Jun-25 11:57 UTC.
Position N 46°53' W 091°46'.

Length 213 m; draft 5.6 m.

Type: Ship. MMSI: 316002501.

Date/timePositionNaut miles runAvg speedWind from/ knotsBaromVisibWave heightAir tempDewpointWater temp
2018-Jun-24 00:31N 46°53' W 091°46'113.2
2018-Jun-24 00:27N 46°53' W 091°47'613.2
2018-Jun-23 23:59N 46°50' W 091°55'613.2
2018-Jun-23 23:30N 46°47' W 092°04'3 6.3
2018-Jun-23 23:00N 46°45' W 092°06'1 2.1
2018-Jun-23 22:30N 46°45' W 092°08'0 0.1
2018-Jun-23 22:00N 46°45' W 092°08'0 0.1
2018-Jun-23 21:30N 46°45' W 092°08'0 0.0
2018-Jun-23 21:00N 46°45' W 092°08'0 0.0
2018-Jun-23 20:30N 46°45' W 092°08'0 0.1
2018-Jun-23 20:00N 46°45' W 092°08'0 0.0
2018-Jun-23 19:30N 46°45' W 092°08'0 0.0
2018-Jun-23 19:00N 46°45' W 092°08'0 0.0
2018-Jun-23 18:30N 46°45' W 092°08'0 0.6
2018-Jun-23 18:00N 46°45' W 092°08'2 4.2
2018-Jun-23 17:30N 46°46' W 092°06'612.4
2018-Jun-23 17:00N 46°49' W 091°58'714.1
2018-Jun-23 16:30N 46°52' W 091°48'713.9
2018-Jun-23 16:00N 46°54' W 091°38'713.9
2018-Jun-23 15:28N 46°57' W 091°28'3714.1
2018-Jun-23 12:51N 47°10' W 090°38'253 9.9
2018-Jun-22 11:22N 46°27' W 084°33'7912.1
2018-Jun-22 04:53N 46°43' W 086°25'613.6
2018-Jun-22 04:25N 46°41' W 086°34'613.6
2018-Jun-22 04:00N 46°40' W 086°42'813.6
2018-Jun-22 03:26N 46°39' W 086°54'  
2018-Jun-19 15:59N 46°53' W 091°45'613.3
2018-Jun-19 15:30N 46°50' W 091°54'713.4
2018-Jun-19 15:00N 46°48' W 092°03'3 6.9
2018-Jun-19 14:30N 46°45' W 092°06'1 2.7
2018-Jun-19 14:00N 46°45' W 092°08'0 0.7
2018-Jun-19 13:30N 46°45' W 092°08'0 0.0
2018-Jun-19 13:00N 46°45' W 092°08'0 0.1
2018-Jun-19 12:30N 46°45' W 092°08'0 0.0
2018-Jun-19 12:00N 46°45' W 092°08'0 0.1
2018-Jun-19 11:30N 46°45' W 092°08'0 0.0
2018-Jun-19 11:00N 46°45' W 092°08'0 0.0
2018-Jun-19 10:31N 46°45' W 092°08'0 0.0
2018-Jun-19 10:00N 46°45' W 092°08'0 0.1
2018-Jun-19 09:30N 46°45' W 092°08'0 0.1
2018-Jun-19 09:00N 46°45' W 092°08'0 0.0
2018-Jun-19 08:30N 46°45' W 092°08'0 0.0
2018-Jun-19 07:59N 46°45' W 092°08'0 0.0
2018-Jun-19 07:30N 46°45' W 092°08'0 0.0
2018-Jun-19 07:00N 46°45' W 092°08'0 0.3
2018-Jun-19 06:30N 46°45' W 092°08'1 3.0
2018-Jun-19 06:00N 46°45' W 092°06'4 7.6
2018-Jun-19 05:30N 46°48' W 092°02'713.9
2018-Jun-19 05:01N 46°50' W 091°52'714.1
2018-Jun-19 04:31N 46°53' W 091°43'714.1
2018-Jun-19 04:01N 46°56' W 091°33'714.1
2018-Jun-19 03:31N 46°58' W 091°24'  

Dump ship's entire track history